sensor_id;sensor_type;location;lat;lon;timestamp;P1;durP1;ratioP1;P2;durP2;ratioP2
54823;SDS011;40724;53.196;5.980;2023-12-20T00:02:04;4.72;;;2.10;;
54823;SDS011;40724;53.196;5.980;2023-12-20T00:04:30;9.35;;;2.50;;
54823;SDS011;40724;53.196;5.980;2023-12-20T00:06:56;6.45;;;2.42;;
54823;SDS011;40724;53.196;5.980;2023-12-20T00:09:22;7.28;;;2.53;;
54823;SDS011;40724;53.196;5.980;2023-12-20T00:11:48;7.13;;;3.58;;
54823;SDS011;40724;53.196;5.980;2023-12-20T00:14:15;5.93;;;2.03;;
54823;SDS011;40724;53.196;5.980;2023-12-20T00:16:41;11.02;;;2.97;;
54823;SDS011;40724;53.196;5.980;2023-12-20T00:19:07;8.00;;;2.33;;
54823;SDS011;40724;53.196;5.980;2023-12-20T00:21:33;6.90;;;2.67;;
54823;SDS011;40724;53.196;5.980;2023-12-20T00:23:59;6.00;;;2.65;;
54823;SDS011;40724;53.196;5.980;2023-12-20T00:26:25;11.20;;;3.28;;
54823;SDS011;40724;53.196;5.980;2023-12-20T00:28:53;7.50;;;2.15;;
54823;SDS011;40724;53.196;5.980;2023-12-20T00:31:19;7.28;;;2.35;;
54823;SDS011;40724;53.196;5.980;2023-12-20T00:33:45;4.45;;;2.00;;
54823;SDS011;40724;53.196;5.980;2023-12-20T00:36:12;7.50;;;2.63;;
54823;SDS011;40724;53.196;5.980;2023-12-20T00:38:38;8.27;;;2.53;;
54823;SDS011;40724;53.196;5.980;2023-12-20T00:41:04;6.47;;;2.20;;
54823;SDS011;40724;53.196;5.980;2023-12-20T00:43:30;8.35;;;3.10;;
54823;SDS011;40724;53.196;5.980;2023-12-20T00:45:57;8.23;;;2.45;;
54823;SDS011;40724;53.196;5.980;2023-12-20T00:48:25;9.32;;;3.63;;
54823;SDS011;40724;53.196;5.980;2023-12-20T00:50:52;9.15;;;2.55;;
54823;SDS011;40724;53.196;5.980;2023-12-20T00:53:18;7.05;;;2.35;;
54823;SDS011;40724;53.196;5.980;2023-12-20T00:55:45;12.68;;;2.95;;
54823;SDS011;40724;53.196;5.980;2023-12-20T00:58:11;13.38;;;4.00;;
54823;SDS011;40724;53.196;5.980;2023-12-20T01:00:37;10.40;;;3.15;;
54823;SDS011;40724;53.196;5.980;2023-12-20T01:03:03;9.63;;;3.75;;
54823;SDS011;40724;53.196;5.980;2023-12-20T01:05:29;8.43;;;3.17;;
54823;SDS011;40724;53.196;5.980;2023-12-20T01:07:56;7.55;;;2.50;;
54823;SDS011;40724;53.196;5.980;2023-12-20T01:10:22;13.18;;;3.30;;
54823;SDS011;40724;53.196;5.980;2023-12-20T01:12:48;8.15;;;2.63;;
54823;SDS011;40724;53.196;5.980;2023-12-20T01:15:14;8.27;;;3.20;;
54823;SDS011;40724;53.196;5.980;2023-12-20T01:17:40;11.65;;;2.83;;
54823;SDS011;40724;53.196;5.980;2023-12-20T01:20:06;8.13;;;3.83;;
54823;SDS011;40724;53.196;5.980;2023-12-20T01:22:33;10.02;;;2.75;;
54823;SDS011;40724;53.196;5.980;2023-12-20T01:25:01;10.02;;;3.83;;
54823;SDS011;40724;53.196;5.980;2023-12-20T01:27:27;9.93;;;3.42;;
54823;SDS011;40724;53.196;5.980;2023-12-20T01:29:54;10.98;;;4.03;;
54823;SDS011;40724;53.196;5.980;2023-12-20T01:32:20;9.98;;;4.25;;
54823;SDS011;40724;53.196;5.980;2023-12-20T01:34:46;11.07;;;4.60;;
54823;SDS011;40724;53.196;5.980;2023-12-20T01:37:13;7.70;;;2.85;;
54823;SDS011;40724;53.196;5.980;2023-12-20T01:39:39;11.60;;;3.03;;
54823;SDS011;40724;53.196;5.980;2023-12-20T01:42:05;13.13;;;2.75;;
54823;SDS011;40724;53.196;5.980;2023-12-20T01:44:33;9.90;;;3.28;;
54823;SDS011;40724;53.196;5.980;2023-12-20T01:46:59;10.05;;;3.35;;
54823;SDS011;40724;53.196;5.980;2023-12-20T01:49:25;12.90;;;3.88;;
54823;SDS011;40724;53.196;5.980;2023-12-20T01:51:51;9.98;;;3.40;;
54823;SDS011;40724;53.196;5.980;2023-12-20T01:54:18;12.38;;;3.28;;
54823;SDS011;40724;53.196;5.980;2023-12-20T01:56:45;8.50;;;3.03;;
54823;SDS011;40724;53.196;5.980;2023-12-20T01:59:11;11.93;;;3.33;;
54823;SDS011;40724;53.196;5.980;2023-12-20T02:01:38;10.60;;;3.65;;
54823;SDS011;40724;53.196;5.980;2023-12-20T02:04:04;7.43;;;3.03;;
54823;SDS011;40724;53.196;5.980;2023-12-20T02:06:30;11.38;;;3.53;;
54823;SDS011;40724;53.196;5.980;2023-12-20T02:08:59;6.38;;;2.70;;
54823;SDS011;40724;53.196;5.980;2023-12-20T02:11:26;14.73;;;4.03;;
54823;SDS011;40724;53.196;5.980;2023-12-20T02:13:53;17.00;;;5.20;;
54823;SDS011;40724;53.196;5.980;2023-12-20T02:16:19;12.75;;;3.90;;
54823;SDS011;40724;53.196;5.980;2023-12-20T02:18:45;9.23;;;4.13;;
54823;SDS011;40724;53.196;5.980;2023-12-20T02:21:11;9.48;;;3.22;;
54823;SDS011;40724;53.196;5.980;2023-12-20T02:23:37;13.65;;;4.10;;
54823;SDS011;40724;53.196;5.980;2023-12-20T02:26:03;18.90;;;4.60;;
54823;SDS011;40724;53.196;5.980;2023-12-20T02:28:30;12.35;;;4.13;;
54823;SDS011;40724;53.196;5.980;2023-12-20T02:30:58;14.50;;;4.13;;
54823;SDS011;40724;53.196;5.980;2023-12-20T02:33:24;11.40;;;3.08;;
54823;SDS011;40724;53.196;5.980;2023-12-20T02:35:50;10.77;;;3.78;;
54823;SDS011;40724;53.196;5.980;2023-12-20T02:38:17;14.32;;;4.50;;
54823;SDS011;40724;53.196;5.980;2023-12-20T02:40:44;12.25;;;4.47;;
54823;SDS011;40724;53.196;5.980;2023-12-20T02:43:10;11.13;;;3.78;;
54823;SDS011;40724;53.196;5.980;2023-12-20T02:45:36;12.10;;;4.13;;
54823;SDS011;40724;53.196;5.980;2023-12-20T02:48:02;13.05;;;4.05;;
54823;SDS011;40724;53.196;5.980;2023-12-20T02:50:28;12.48;;;3.90;;
54823;SDS011;40724;53.196;5.980;2023-12-20T02:52:54;12.02;;;4.40;;
54823;SDS011;40724;53.196;5.980;2023-12-20T02:55:20;16.33;;;3.92;;
54823;SDS011;40724;53.196;5.980;2023-12-20T02:57:52;11.98;;;4.20;;
54823;SDS011;40724;53.196;5.980;2023-12-20T03:00:18;11.10;;;5.03;;
54823;SDS011;40724;53.196;5.980;2023-12-20T03:02:44;11.13;;;4.00;;
54823;SDS011;40724;53.196;5.980;2023-12-20T03:05:10;11.60;;;4.55;;
54823;SDS011;40724;53.196;5.980;2023-12-20T03:07:37;10.57;;;3.55;;
54823;SDS011;40724;53.196;5.980;2023-12-20T03:10:03;11.75;;;3.67;;
54823;SDS011;40724;53.196;5.980;2023-12-20T03:12:29;13.48;;;4.88;;
54823;SDS011;40724;53.196;5.980;2023-12-20T03:14:56;9.10;;;4.30;;
54823;SDS011;40724;53.196;5.980;2023-12-20T03:17:22;12.65;;;4.20;;
54823;SDS011;40724;53.196;5.980;2023-12-20T03:19:48;15.95;;;5.15;;
54823;SDS011;40724;53.196;5.980;2023-12-20T03:22:14;9.27;;;3.90;;
54823;SDS011;40724;53.196;5.980;2023-12-20T03:24:40;7.72;;;3.63;;
54823;SDS011;40724;53.196;5.980;2023-12-20T03:27:08;13.48;;;5.05;;
54823;SDS011;40724;53.196;5.980;2023-12-20T03:29:35;16.02;;;4.82;;
54823;SDS011;40724;53.196;5.980;2023-12-20T03:32:03;8.63;;;4.38;;
54823;SDS011;40724;53.196;5.980;2023-12-20T03:34:29;17.88;;;4.82;;
54823;SDS011;40724;53.196;5.980;2023-12-20T03:36:55;15.60;;;4.53;;
54823;SDS011;40724;53.196;5.980;2023-12-20T03:39:21;11.20;;;4.60;;
54823;SDS011;40724;53.196;5.980;2023-12-20T03:41:47;18.73;;;5.60;;
54823;SDS011;40724;53.196;5.980;2023-12-20T03:44:15;11.55;;;4.80;;
54823;SDS011;40724;53.196;5.980;2023-12-20T03:46:41;17.00;;;4.30;;
54823;SDS011;40724;53.196;5.980;2023-12-20T03:49:07;16.48;;;5.10;;
54823;SDS011;40724;53.196;5.980;2023-12-20T03:51:39;17.67;;;4.93;;
54823;SDS011;40724;53.196;5.980;2023-12-20T03:54:05;10.70;;;4.45;;
54823;SDS011;40724;53.196;5.980;2023-12-20T03:56:31;14.07;;;4.90;;
54823;SDS011;40724;53.196;5.980;2023-12-20T03:58:57;14.05;;;4.47;;
54823;SDS011;40724;53.196;5.980;2023-12-20T04:01:24;9.88;;;4.00;;
54823;SDS011;40724;53.196;5.980;2023-12-20T04:03:51;13.70;;;4.18;;
54823;SDS011;40724;53.196;5.980;2023-12-20T04:06:20;15.18;;;5.72;;
54823;SDS011;40724;53.196;5.980;2023-12-20T04:08:46;15.20;;;4.35;;
54823;SDS011;40724;53.196;5.980;2023-12-20T04:11:12;11.50;;;4.63;;
54823;SDS011;40724;53.196;5.980;2023-12-20T04:13:38;20.55;;;5.03;;
54823;SDS011;40724;53.196;5.980;2023-12-20T04:16:04;14.63;;;4.70;;
54823;SDS011;40724;53.196;5.980;2023-12-20T04:18:30;17.05;;;4.78;;
54823;SDS011;40724;53.196;5.980;2023-12-20T04:21:02;15.83;;;6.00;;
54823;SDS011;40724;53.196;5.980;2023-12-20T04:23:29;15.85;;;5.68;;
54823;SDS011;40724;53.196;5.980;2023-12-20T04:25:55;17.10;;;4.78;;
54823;SDS011;40724;53.196;5.980;2023-12-20T04:28:21;23.80;;;5.95;;
54823;SDS011;40724;53.196;5.980;2023-12-20T04:30:47;12.10;;;4.80;;
54823;SDS011;40724;53.196;5.980;2023-12-20T04:33:13;14.98;;;4.65;;
54823;SDS011;40724;53.196;5.980;2023-12-20T04:35:40;15.82;;;4.30;;
54823;SDS011;40724;53.196;5.980;2023-12-20T04:38:08;20.25;;;6.05;;
54823;SDS011;40724;53.196;5.980;2023-12-20T04:40:34;13.10;;;3.83;;
54823;SDS011;40724;53.196;5.980;2023-12-20T04:43:01;16.10;;;5.40;;
54823;SDS011;40724;53.196;5.980;2023-12-20T04:45:27;9.98;;;3.92;;
54823;SDS011;40724;53.196;5.980;2023-12-20T04:47:53;12.93;;;4.35;;
54823;SDS011;40724;53.196;5.980;2023-12-20T04:50:19;16.42;;;4.85;;
54823;SDS011;40724;53.196;5.980;2023-12-20T04:52:46;19.23;;;4.30;;
54823;SDS011;40724;53.196;5.980;2023-12-20T04:55:12;15.43;;;4.57;;
54823;SDS011;40724;53.196;5.980;2023-12-20T04:57:39;15.13;;;4.40;;
54823;SDS011;40724;53.196;5.980;2023-12-20T05:00:05;17.65;;;6.63;;
54823;SDS011;40724;53.196;5.980;2023-12-20T05:02:33;13.70;;;5.15;;
54823;SDS011;40724;53.196;5.980;2023-12-20T05:04:59;13.45;;;4.65;;
54823;SDS011;40724;53.196;5.980;2023-12-20T05:07:25;16.75;;;4.40;;
54823;SDS011;40724;53.196;5.980;2023-12-20T05:09:52;22.15;;;4.68;;
54823;SDS011;40724;53.196;5.980;2023-12-20T05:12:18;16.05;;;5.00;;
54823;SDS011;40724;53.196;5.980;2023-12-20T05:14:45;10.88;;;4.53;;
54823;SDS011;40724;53.196;5.980;2023-12-20T05:17:12;10.52;;;3.83;;
54823;SDS011;40724;53.196;5.980;2023-12-20T05:19:38;13.57;;;3.83;;
54823;SDS011;40724;53.196;5.980;2023-12-20T05:22:04;15.57;;;4.45;;
54823;SDS011;40724;53.196;5.980;2023-12-20T05:24:30;15.00;;;4.43;;
54823;SDS011;40724;53.196;5.980;2023-12-20T05:26:56;12.10;;;3.75;;
54823;SDS011;40724;53.196;5.980;2023-12-20T05:29:22;16.50;;;5.63;;
54823;SDS011;40724;53.196;5.980;2023-12-20T05:31:48;11.68;;;4.65;;
54823;SDS011;40724;53.196;5.980;2023-12-20T05:34:14;10.27;;;4.50;;
54823;SDS011;40724;53.196;5.980;2023-12-20T05:36:40;8.80;;;4.78;;
54823;SDS011;40724;53.196;5.980;2023-12-20T05:39:07;17.17;;;4.20;;
54823;SDS011;40724;53.196;5.980;2023-12-20T05:41:33;11.60;;;4.38;;
54823;SDS011;40724;53.196;5.980;2023-12-20T05:43:59;18.42;;;5.85;;
54823;SDS011;40724;53.196;5.980;2023-12-20T05:46:26;15.02;;;4.88;;
54823;SDS011;40724;53.196;5.980;2023-12-20T05:48:52;16.38;;;5.03;;
54823;SDS011;40724;53.196;5.980;2023-12-20T05:51:18;13.77;;;4.20;;
54823;SDS011;40724;53.196;5.980;2023-12-20T05:53:46;13.68;;;4.72;;
54823;SDS011;40724;53.196;5.980;2023-12-20T05:56:12;14.05;;;3.95;;
54823;SDS011;40724;53.196;5.980;2023-12-20T05:58:38;16.50;;;4.32;;
54823;SDS011;40724;53.196;5.980;2023-12-20T06:01:05;16.13;;;5.03;;
54823;SDS011;40724;53.196;5.980;2023-12-20T06:03:33;17.80;;;4.82;;
54823;SDS011;40724;53.196;5.980;2023-12-20T06:05:59;15.85;;;5.28;;
54823;SDS011;40724;53.196;5.980;2023-12-20T06:08:25;14.40;;;4.07;;
54823;SDS011;40724;53.196;5.980;2023-12-20T06:10:52;19.48;;;5.35;;
54823;SDS011;40724;53.196;5.980;2023-12-20T06:13:18;16.15;;;3.40;;
54823;SDS011;40724;53.196;5.980;2023-12-20T06:15:44;16.48;;;4.72;;
54823;SDS011;40724;53.196;5.980;2023-12-20T06:18:10;14.48;;;4.32;;
54823;SDS011;40724;53.196;5.980;2023-12-20T06:20:36;16.70;;;4.38;;
54823;SDS011;40724;53.196;5.980;2023-12-20T06:23:02;12.90;;;4.97;;
54823;SDS011;40724;53.196;5.980;2023-12-20T06:25:28;17.75;;;5.35;;
54823;SDS011;40724;53.196;5.980;2023-12-20T06:27:54;10.93;;;4.53;;
54823;SDS011;40724;53.196;5.980;2023-12-20T06:30:21;17.17;;;5.60;;
54823;SDS011;40724;53.196;5.980;2023-12-20T06:32:47;20.67;;;5.45;;
54823;SDS011;40724;53.196;5.980;2023-12-20T06:35:13;13.13;;;5.20;;
54823;SDS011;40724;53.196;5.980;2023-12-20T06:37:39;11.00;;;4.65;;
54823;SDS011;40724;53.196;5.980;2023-12-20T06:40:08;17.80;;;4.85;;
54823;SDS011;40724;53.196;5.980;2023-12-20T06:42:34;15.88;;;5.60;;
54823;SDS011;40724;53.196;5.980;2023-12-20T06:45:00;13.88;;;5.47;;
54823;SDS011;40724;53.196;5.980;2023-12-20T06:47:26;12.68;;;4.50;;
54823;SDS011;40724;53.196;5.980;2023-12-20T06:49:52;14.73;;;5.30;;
54823;SDS011;40724;53.196;5.980;2023-12-20T06:52:18;15.35;;;3.95;;
54823;SDS011;40724;53.196;5.980;2023-12-20T06:54:44;15.57;;;4.90;;
54823;SDS011;40724;53.196;5.980;2023-12-20T06:57:11;8.57;;;4.13;;
54823;SDS011;40724;53.196;5.980;2023-12-20T06:59:43;12.68;;;4.30;;
54823;SDS011;40724;53.196;5.980;2023-12-20T07:02:09;16.45;;;5.05;;
54823;SDS011;40724;53.196;5.980;2023-12-20T07:04:39;9.88;;;5.00;;
54823;SDS011;40724;53.196;5.980;2023-12-20T07:07:05;19.02;;;6.70;;
54823;SDS011;40724;53.196;5.980;2023-12-20T07:09:32;20.13;;;5.28;;
54823;SDS011;40724;53.196;5.980;2023-12-20T07:11:58;19.33;;;5.40;;
54823;SDS011;40724;53.196;5.980;2023-12-20T07:14:24;12.77;;;4.90;;
54823;SDS011;40724;53.196;5.980;2023-12-20T07:16:51;22.73;;;5.63;;
54823;SDS011;40724;53.196;5.980;2023-12-20T07:19:17;11.70;;;5.18;;
54823;SDS011;40724;53.196;5.980;2023-12-20T07:21:43;11.63;;;4.28;;
54823;SDS011;40724;53.196;5.980;2023-12-20T07:24:09;25.33;;;6.13;;
54823;SDS011;40724;53.196;5.980;2023-12-20T07:26:36;17.70;;;5.47;;
54823;SDS011;40724;53.196;5.980;2023-12-20T07:29:03;17.45;;;5.65;;
54823;SDS011;40724;53.196;5.980;2023-12-20T07:31:29;13.35;;;4.28;;
54823;SDS011;40724;53.196;5.980;2023-12-20T07:33:56;17.13;;;5.65;;
54823;SDS011;40724;53.196;5.980;2023-12-20T07:36:22;13.68;;;5.43;;
54823;SDS011;40724;53.196;5.980;2023-12-20T07:38:48;19.98;;;5.35;;
54823;SDS011;40724;53.196;5.980;2023-12-20T07:41:14;16.23;;;5.40;;
54823;SDS011;40724;53.196;5.980;2023-12-20T07:43:46;16.33;;;4.30;;
54823;SDS011;40724;53.196;5.980;2023-12-20T07:46:12;13.50;;;4.70;;
54823;SDS011;40724;53.196;5.980;2023-12-20T07:48:38;10.57;;;4.35;;
54823;SDS011;40724;53.196;5.980;2023-12-20T07:51:04;16.77;;;6.38;;
54823;SDS011;40724;53.196;5.980;2023-12-20T07:53:35;19.63;;;5.30;;
54823;SDS011;40724;53.196;5.980;2023-12-20T07:56:01;15.50;;;5.25;;
54823;SDS011;40724;53.196;5.980;2023-12-20T07:58:27;10.73;;;4.10;;
54823;SDS011;40724;53.196;5.980;2023-12-20T08:00:55;15.10;;;5.05;;
54823;SDS011;40724;53.196;5.980;2023-12-20T08:03:21;15.68;;;5.22;;
54823;SDS011;40724;53.196;5.980;2023-12-20T08:05:47;24.00;;;7.05;;
54823;SDS011;40724;53.196;5.980;2023-12-20T08:08:13;15.35;;;4.68;;
54823;SDS011;40724;53.196;5.980;2023-12-20T08:10:39;19.00;;;5.32;;
54823;SDS011;40724;53.196;5.980;2023-12-20T08:13:05;16.38;;;5.25;;
54823;SDS011;40724;53.196;5.980;2023-12-20T08:15:32;15.55;;;5.22;;
54823;SDS011;40724;53.196;5.980;2023-12-20T08:18:01;14.57;;;5.57;;
54823;SDS011;40724;53.196;5.980;2023-12-20T08:20:27;9.40;;;3.80;;
54823;SDS011;40724;53.196;5.980;2023-12-20T08:22:53;13.75;;;5.05;;
54823;SDS011;40724;53.196;5.980;2023-12-20T08:25:19;12.73;;;4.97;;
54823;SDS011;40724;53.196;5.980;2023-12-20T08:27:45;16.63;;;3.90;;
54823;SDS011;40724;53.196;5.980;2023-12-20T08:30:12;15.90;;;4.32;;
54823;SDS011;40724;53.196;5.980;2023-12-20T08:32:40;12.63;;;4.25;;
54823;SDS011;40724;53.196;5.980;2023-12-20T08:35:06;17.70;;;4.80;;
54823;SDS011;40724;53.196;5.980;2023-12-20T08:37:32;13.48;;;5.25;;
54823;SDS011;40724;53.196;5.980;2023-12-20T08:39:58;12.55;;;4.45;;
54823;SDS011;40724;53.196;5.980;2023-12-20T08:42:24;11.50;;;4.55;;
54823;SDS011;40724;53.196;5.980;2023-12-20T08:44:56;12.68;;;4.88;;
54823;SDS011;40724;53.196;5.980;2023-12-20T08:47:23;13.32;;;4.60;;
54823;SDS011;40724;53.196;5.980;2023-12-20T08:49:49;12.48;;;3.85;;
54823;SDS011;40724;53.196;5.980;2023-12-20T08:52:15;11.90;;;5.18;;
54823;SDS011;40724;53.196;5.980;2023-12-20T08:54:41;11.45;;;4.00;;
54823;SDS011;40724;53.196;5.980;2023-12-20T08:57:07;14.00;;;4.90;;
54823;SDS011;40724;53.196;5.980;2023-12-20T08:59:34;18.48;;;4.85;;
54823;SDS011;40724;53.196;5.980;2023-12-20T09:02:00;16.95;;;4.13;;
54823;SDS011;40724;53.196;5.980;2023-12-20T09:04:27;7.47;;;3.28;;
54823;SDS011;40724;53.196;5.980;2023-12-20T09:06:53;12.85;;;3.28;;
54823;SDS011;40724;53.196;5.980;2023-12-20T09:09:19;9.68;;;3.47;;
54823;SDS011;40724;53.196;5.980;2023-12-20T09:11:45;9.80;;;3.20;;
54823;SDS011;40724;53.196;5.980;2023-12-20T09:14:13;9.10;;;3.42;;
54823;SDS011;40724;53.196;5.980;2023-12-20T09:16:39;8.38;;;3.13;;
54823;SDS011;40724;53.196;5.980;2023-12-20T09:19:05;9.38;;;3.70;;
54823;SDS011;40724;53.196;5.980;2023-12-20T09:21:31;8.32;;;2.92;;
54823;SDS011;40724;53.196;5.980;2023-12-20T09:23:57;16.63;;;4.28;;
54823;SDS011;40724;53.196;5.980;2023-12-20T09:26:23;7.70;;;2.40;;
54823;SDS011;40724;53.196;5.980;2023-12-20T09:28:50;5.10;;;1.95;;
54823;SDS011;40724;53.196;5.980;2023-12-20T09:31:16;7.45;;;2.95;;
54823;SDS011;40724;53.196;5.980;2023-12-20T09:33:42;6.70;;;2.78;;
54823;SDS011;40724;53.196;5.980;2023-12-20T09:36:08;8.80;;;2.92;;
54823;SDS011;40724;53.196;5.980;2023-12-20T09:38:34;9.18;;;2.55;;
54823;SDS011;40724;53.196;5.980;2023-12-20T09:41:00;6.93;;;3.03;;
54823;SDS011;40724;53.196;5.980;2023-12-20T09:43:29;5.43;;;2.60;;
54823;SDS011;40724;53.196;5.980;2023-12-20T09:45:57;6.57;;;2.83;;
54823;SDS011;40724;53.196;5.980;2023-12-20T09:48:24;7.68;;;2.50;;
54823;SDS011;40724;53.196;5.980;2023-12-20T09:50:52;6.75;;;1.92;;
54823;SDS011;40724;53.196;5.980;2023-12-20T09:53:18;6.43;;;2.67;;
54823;SDS011;40724;53.196;5.980;2023-12-20T09:55:45;11.43;;;2.65;;
54823;SDS011;40724;53.196;5.980;2023-12-20T09:58:11;13.25;;;3.97;;
54823;SDS011;40724;53.196;5.980;2023-12-20T10:00:37;10.07;;;2.13;;
54823;SDS011;40724;53.196;5.980;2023-12-20T10:03:03;6.45;;;2.25;;
54823;SDS011;40724;53.196;5.980;2023-12-20T10:05:32;14.55;;;3.67;;
54823;SDS011;40724;53.196;5.980;2023-12-20T10:07:59;6.03;;;1.80;;
54823;SDS011;40724;53.196;5.980;2023-12-20T10:10:25;8.48;;;3.50;;
54823;SDS011;40724;53.196;5.980;2023-12-20T10:13:01;13.48;;;2.47;;
54823;SDS011;40724;53.196;5.980;2023-12-20T10:15:27;9.45;;;2.42;;
54823;SDS011;40724;53.196;5.980;2023-12-20T10:17:53;7.47;;;2.20;;
54823;SDS011;40724;53.196;5.980;2023-12-20T10:20:20;5.07;;;1.98;;
54823;SDS011;40724;53.196;5.980;2023-12-20T10:22:46;5.18;;;1.75;;
54823;SDS011;40724;53.196;5.980;2023-12-20T10:25:13;6.72;;;2.83;;
54823;SDS011;40724;53.196;5.980;2023-12-20T10:27:40;5.78;;;2.25;;
54823;SDS011;40724;53.196;5.980;2023-12-20T10:30:06;6.18;;;2.65;;
54823;SDS011;40724;53.196;5.980;2023-12-20T10:32:32;6.88;;;1.80;;
54823;SDS011;40724;53.196;5.980;2023-12-20T10:34:58;8.25;;;2.03;;
54823;SDS011;40724;53.196;5.980;2023-12-20T10:37:25;7.35;;;2.60;;
54823;SDS011;40724;53.196;5.980;2023-12-20T10:39:52;7.18;;;2.80;;
54823;SDS011;40724;53.196;5.980;2023-12-20T10:42:21;7.90;;;2.22;;
54823;SDS011;40724;53.196;5.980;2023-12-20T10:44:51;9.32;;;2.47;;
54823;SDS011;40724;53.196;5.980;2023-12-20T10:47:19;5.13;;;1.85;;
54823;SDS011;40724;53.196;5.980;2023-12-20T10:49:45;15.80;;;2.95;;
54823;SDS011;40724;53.196;5.980;2023-12-20T10:52:12;9.85;;;2.53;;
54823;SDS011;40724;53.196;5.980;2023-12-20T10:54:39;10.00;;;2.50;;
54823;SDS011;40724;53.196;5.980;2023-12-20T10:57:06;6.05;;;2.22;;
54823;SDS011;40724;53.196;5.980;2023-12-20T10:59:33;7.18;;;2.72;;
54823;SDS011;40724;53.196;5.980;2023-12-20T11:01:59;6.05;;;2.20;;
54823;SDS011;40724;53.196;5.980;2023-12-20T11:04:33;5.95;;;2.65;;
54823;SDS011;40724;53.196;5.980;2023-12-20T11:10:25;6.80;;;2.08;;
54823;SDS011;40724;53.196;5.980;2023-12-20T11:12:52;6.10;;;1.95;;
54823;SDS011;40724;53.196;5.980;2023-12-20T11:15:19;6.75;;;2.25;;
54823;SDS011;40724;53.196;5.980;2023-12-20T11:17:45;5.95;;;2.17;;
54823;SDS011;40724;53.196;5.980;2023-12-20T11:20:12;11.63;;;2.75;;
54823;SDS011;40724;53.196;5.980;2023-12-20T11:22:39;5.20;;;1.90;;
54823;SDS011;40724;53.196;5.980;2023-12-20T11:25:10;6.72;;;2.25;;
54823;SDS011;40724;53.196;5.980;2023-12-20T11:27:36;10.75;;;2.53;;
54823;SDS011;40724;53.196;5.980;2023-12-20T11:30:06;4.82;;;2.40;;
54823;SDS011;40724;53.196;5.980;2023-12-20T11:32:34;4.72;;;1.52;;
54823;SDS011;40724;53.196;5.980;2023-12-20T11:35:01;3.53;;;1.95;;
54823;SDS011;40724;53.196;5.980;2023-12-20T11:37:42;7.05;;;2.00;;
54823;SDS011;40724;53.196;5.980;2023-12-20T11:40:08;10.70;;;2.30;;
54823;SDS011;40724;53.196;5.980;2023-12-20T11:42:48;8.88;;;2.00;;
54823;SDS011;40724;53.196;5.980;2023-12-20T11:45:15;8.20;;;2.63;;
54823;SDS011;40724;53.196;5.980;2023-12-20T11:47:48;11.38;;;2.50;;
54823;SDS011;40724;53.196;5.980;2023-12-20T11:50:23;11.98;;;2.45;;
54823;SDS011;40724;53.196;5.980;2023-12-20T11:52:50;10.30;;;2.47;;
54823;SDS011;40724;53.196;5.980;2023-12-20T11:55:17;5.20;;;1.95;;
54823;SDS011;40724;53.196;5.980;2023-12-20T11:57:43;8.10;;;2.42;;
54823;SDS011;40724;53.196;5.980;2023-12-20T12:00:10;8.20;;;2.25;;
54823;SDS011;40724;53.196;5.980;2023-12-20T12:02:36;10.88;;;2.83;;
54823;SDS011;40724;53.196;5.980;2023-12-20T12:05:02;9.10;;;2.13;;
54823;SDS011;40724;53.196;5.980;2023-12-20T12:07:31;12.80;;;2.88;;
54823;SDS011;40724;53.196;5.980;2023-12-20T12:09:57;9.48;;;1.98;;
54823;SDS011;40724;53.196;5.980;2023-12-20T12:12:23;5.05;;;1.80;;
54823;SDS011;40724;53.196;5.980;2023-12-20T12:14:53;7.35;;;2.08;;
54823;SDS011;40724;53.196;5.980;2023-12-20T12:17:27;10.55;;;2.58;;
54823;SDS011;40724;53.196;5.980;2023-12-20T12:20:01;7.85;;;2.25;;
54823;SDS011;40724;53.196;5.980;2023-12-20T12:22:28;8.13;;;2.45;;
54823;SDS011;40724;53.196;5.980;2023-12-20T12:24:58;6.97;;;2.80;;
54823;SDS011;40724;53.196;5.980;2023-12-20T12:27:24;7.32;;;1.95;;
54823;SDS011;40724;53.196;5.980;2023-12-20T12:30:03;10.25;;;2.83;;
54823;SDS011;40724;53.196;5.980;2023-12-20T12:32:32;8.18;;;2.60;;
54823;SDS011;40724;53.196;5.980;2023-12-20T12:34:58;9.35;;;3.10;;
54823;SDS011;40724;53.196;5.980;2023-12-20T12:37:24;10.38;;;2.97;;
54823;SDS011;40724;53.196;5.980;2023-12-20T12:39:54;8.77;;;3.15;;
54823;SDS011;40724;53.196;5.980;2023-12-20T12:42:20;7.60;;;2.85;;
54823;SDS011;40724;53.196;5.980;2023-12-20T12:44:50;10.90;;;2.75;;
54823;SDS011;40724;53.196;5.980;2023-12-20T12:47:17;10.07;;;2.42;;
54823;SDS011;40724;53.196;5.980;2023-12-20T12:49:43;9.07;;;2.20;;
54823;SDS011;40724;53.196;5.980;2023-12-20T12:52:10;9.07;;;2.60;;
54823;SDS011;40724;53.196;5.980;2023-12-20T12:54:36;8.65;;;2.35;;
54823;SDS011;40724;53.196;5.980;2023-12-20T12:57:02;11.50;;;3.30;;
54823;SDS011;40724;53.196;5.980;2023-12-20T12:59:28;6.25;;;2.22;;
54823;SDS011;40724;53.196;5.980;2023-12-20T13:01:54;13.57;;;2.53;;
54823;SDS011;40724;53.196;5.980;2023-12-20T13:04:21;7.88;;;2.72;;
54823;SDS011;40724;53.196;5.980;2023-12-20T13:06:47;8.32;;;2.92;;
54823;SDS011;40724;53.196;5.980;2023-12-20T13:09:13;7.68;;;3.15;;
54823;SDS011;40724;53.196;5.980;2023-12-20T13:11:40;17.58;;;2.78;;
54823;SDS011;40724;53.196;5.980;2023-12-20T13:14:06;6.75;;;2.60;;
54823;SDS011;40724;53.196;5.980;2023-12-20T13:16:35;15.10;;;2.95;;
54823;SDS011;40724;53.196;5.980;2023-12-20T13:19:01;7.63;;;2.15;;
54823;SDS011;40724;53.196;5.980;2023-12-20T13:21:28;7.97;;;2.10;;
54823;SDS011;40724;53.196;5.980;2023-12-20T13:23:56;4.43;;;1.52;;
54823;SDS011;40724;53.196;5.980;2023-12-20T13:26:22;5.35;;;1.77;;
54823;SDS011;40724;53.196;5.980;2023-12-20T13:28:48;5.00;;;1.92;;
54823;SDS011;40724;53.196;5.980;2023-12-20T13:31:14;4.60;;;2.05;;
54823;SDS011;40724;53.196;5.980;2023-12-20T13:33:40;7.75;;;3.13;;
54823;SDS011;40724;53.196;5.980;2023-12-20T13:36:06;4.88;;;2.60;;
54823;SDS011;40724;53.196;5.980;2023-12-20T13:38:33;9.95;;;2.47;;
54823;SDS011;40724;53.196;5.980;2023-12-20T13:40:59;6.35;;;1.73;;
54823;SDS011;40724;53.196;5.980;2023-12-20T13:43:25;5.53;;;1.70;;
54823;SDS011;40724;53.196;5.980;2023-12-20T13:45:51;5.30;;;1.88;;
54823;SDS011;40724;53.196;5.980;2023-12-20T13:48:17;4.15;;;1.77;;
54823;SDS011;40724;53.196;5.980;2023-12-20T13:50:44;6.65;;;1.73;;
54823;SDS011;40724;53.196;5.980;2023-12-20T13:53:10;3.92;;;1.40;;
54823;SDS011;40724;53.196;5.980;2023-12-20T13:55:36;3.25;;;1.45;;
54823;SDS011;40724;53.196;5.980;2023-12-20T13:58:03;5.30;;;1.60;;
54823;SDS011;40724;53.196;5.980;2023-12-20T14:00:34;11.75;;;1.83;;
54823;SDS011;40724;53.196;5.980;2023-12-20T14:03:02;4.97;;;1.60;;
54823;SDS011;40724;53.196;5.980;2023-12-20T14:05:28;5.68;;;1.90;;
54823;SDS011;40724;53.196;5.980;2023-12-20T14:07:57;4.20;;;1.50;;
54823;SDS011;40724;53.196;5.980;2023-12-20T14:10:23;2.78;;;1.20;;
54823;SDS011;40724;53.196;5.980;2023-12-20T14:12:56;6.15;;;1.67;;
54823;SDS011;40724;53.196;5.980;2023-12-20T14:15:22;9.02;;;1.25;;
54823;SDS011;40724;53.196;5.980;2023-12-20T14:17:50;8.23;;;1.92;;
54823;SDS011;40724;53.196;5.980;2023-12-20T14:20:16;7.45;;;2.30;;
54823;SDS011;40724;53.196;5.980;2023-12-20T14:22:43;6.07;;;2.25;;
54823;SDS011;40724;53.196;5.980;2023-12-20T14:25:15;4.68;;;1.17;;
54823;SDS011;40724;53.196;5.980;2023-12-20T14:27:41;3.38;;;1.50;;
54823;SDS011;40724;53.196;5.980;2023-12-20T14:30:08;7.10;;;2.03;;
54823;SDS011;40724;53.196;5.980;2023-12-20T14:32:35;7.72;;;1.50;;
54823;SDS011;40724;53.196;5.980;2023-12-20T14:35:05;4.97;;;2.15;;
54823;SDS011;40724;53.196;5.980;2023-12-20T14:37:31;8.07;;;1.65;;
54823;SDS011;40724;53.196;5.980;2023-12-20T14:39:57;9.60;;;2.47;;
54823;SDS011;40724;53.196;5.980;2023-12-20T14:42:24;6.82;;;2.03;;